sensor_id;sensor_type;location;lat;lon;timestamp;P1;durP1;ratioP1;P2;durP2;ratioP2
13592;SDS011;6867;50.998;4.250;2022-09-01T00:02:06;4.38;;;2.45;;
13592;SDS011;6867;50.998;4.250;2022-09-01T00:04:34;3.78;;;2.00;;
13592;SDS011;6867;50.998;4.250;2022-09-01T00:07:03;3.65;;;1.90;;
13592;SDS011;6867;50.998;4.250;2022-09-01T00:09:30;3.35;;;1.48;;
13592;SDS011;6867;50.998;4.250;2022-09-01T00:11:57;2.00;;;1.67;;
13592;SDS011;6867;50.998;4.250;2022-09-01T00:14:25;4.97;;;1.85;;
13592;SDS011;6867;50.998;4.250;2022-09-01T00:16:54;3.55;;;1.60;;
13592;SDS011;6867;50.998;4.250;2022-09-01T00:19:22;2.45;;;1.83;;
13592;SDS011;6867;50.998;4.250;2022-09-01T00:21:49;3.53;;;1.83;;
13592;SDS011;6867;50.998;4.250;2022-09-01T00:24:17;2.63;;;1.80;;
13592;SDS011;6867;50.998;4.250;2022-09-01T00:26:44;2.25;;;1.90;;
13592;SDS011;6867;50.998;4.250;2022-09-01T00:29:11;2.78;;;1.98;;
13592;SDS011;6867;50.998;4.250;2022-09-01T00:31:38;5.00;;;1.70;;
13592;SDS011;6867;50.998;4.250;2022-09-01T00:34:07;3.00;;;1.80;;
13592;SDS011;6867;50.998;4.250;2022-09-01T00:36:34;2.55;;;1.80;;
13592;SDS011;6867;50.998;4.250;2022-09-01T00:39:01;2.35;;;1.73;;
13592;SDS011;6867;50.998;4.250;2022-09-01T00:41:29;4.70;;;2.33;;
13592;SDS011;6867;50.998;4.250;2022-09-01T00:43:58;2.35;;;1.80;;
13592;SDS011;6867;50.998;4.250;2022-09-01T00:46:27;1.77;;;1.50;;
13592;SDS011;6867;50.998;4.250;2022-09-01T00:48:57;3.92;;;1.92;;
13592;SDS011;6867;50.998;4.250;2022-09-01T00:51:28;2.20;;;1.67;;
13592;SDS011;6867;50.998;4.250;2022-09-01T00:53:56;2.35;;;1.70;;
13592;SDS011;6867;50.998;4.250;2022-09-01T00:56:25;4.03;;;1.55;;
13592;SDS011;6867;50.998;4.250;2022-09-01T00:58:52;5.85;;;1.40;;
13592;SDS011;6867;50.998;4.250;2022-09-01T01:01:19;2.33;;;1.85;;
13592;SDS011;6867;50.998;4.250;2022-09-01T01:03:47;2.55;;;1.67;;
13592;SDS011;6867;50.998;4.250;2022-09-01T01:06:14;1.65;;;1.55;;
13592;SDS011;6867;50.998;4.250;2022-09-01T01:08:45;3.55;;;1.50;;
13592;SDS011;6867;50.998;4.250;2022-09-01T01:11:25;2.40;;;1.60;;
13592;SDS011;6867;50.998;4.250;2022-09-01T01:13:58;1.60;;;1.35;;
13592;SDS011;6867;50.998;4.250;2022-09-01T01:16:30;3.25;;;1.73;;
13592;SDS011;6867;50.998;4.250;2022-09-01T01:18:59;1.88;;;1.52;;
13592;SDS011;6867;50.998;4.250;2022-09-01T01:21:28;2.22;;;1.25;;
13592;SDS011;6867;50.998;4.250;2022-09-01T01:24:20;2.67;;;1.50;;
13592;SDS011;6867;50.998;4.250;2022-09-01T01:26:49;2.15;;;1.30;;
13592;SDS011;6867;50.998;4.250;2022-09-01T01:29:16;6.05;;;1.30;;
13592;SDS011;6867;50.998;4.250;2022-09-01T01:31:43;1.52;;;1.40;;
13592;SDS011;6867;50.998;4.250;2022-09-01T01:34:11;2.42;;;1.40;;
13592;SDS011;6867;50.998;4.250;2022-09-01T01:36:39;1.60;;;1.10;;
13592;SDS011;6867;50.998;4.250;2022-09-01T01:39:06;1.20;;;1.10;;
13592;SDS011;6867;50.998;4.250;2022-09-01T01:41:38;1.98;;;1.10;;
13592;SDS011;6867;50.998;4.250;2022-09-01T01:44:07;2.85;;;1.58;;
13592;SDS011;6867;50.998;4.250;2022-09-01T01:46:38;1.38;;;1.27;;
13592;SDS011;6867;50.998;4.250;2022-09-01T01:49:07;2.10;;;1.33;;
13592;SDS011;6867;50.998;4.250;2022-09-01T01:51:34;3.40;;;1.20;;
13592;SDS011;6867;50.998;4.250;2022-09-01T01:54:01;3.90;;;1.65;;
13592;SDS011;6867;50.998;4.250;2022-09-01T01:56:29;2.05;;;1.50;;
13592;SDS011;6867;50.998;4.250;2022-09-01T01:58:58;1.83;;;1.27;;
13592;SDS011;6867;50.998;4.250;2022-09-01T02:01:26;3.95;;;1.48;;
13592;SDS011;6867;50.998;4.250;2022-09-01T02:03:56;2.63;;;1.33;;
13592;SDS011;6867;50.998;4.250;2022-09-01T02:06:24;2.58;;;1.50;;
13592;SDS011;6867;50.998;4.250;2022-09-01T02:08:52;3.20;;;1.40;;
13592;SDS011;6867;50.998;4.250;2022-09-01T02:11:22;2.85;;;1.55;;
13592;SDS011;6867;50.998;4.250;2022-09-01T02:13:50;1.63;;;1.23;;
13592;SDS011;6867;50.998;4.250;2022-09-01T02:16:22;1.60;;;1.20;;
13592;SDS011;6867;50.998;4.250;2022-09-01T02:18:50;2.92;;;1.55;;
13592;SDS011;6867;50.998;4.250;2022-09-01T02:21:18;1.73;;;1.20;;
13592;SDS011;6867;50.998;4.250;2022-09-01T02:23:49;1.40;;;1.30;;
13592;SDS011;6867;50.998;4.250;2022-09-01T02:26:21;1.98;;;1.17;;
13592;SDS011;6867;50.998;4.250;2022-09-01T02:28:54;1.50;;;1.30;;
13592;SDS011;6867;50.998;4.250;2022-09-01T02:31:22;4.00;;;1.58;;
13592;SDS011;6867;50.998;4.250;2022-09-01T02:33:51;3.53;;;1.55;;
13592;SDS011;6867;50.998;4.250;2022-09-01T02:36:18;1.58;;;1.10;;
13592;SDS011;6867;50.998;4.250;2022-09-01T02:38:46;1.63;;;1.30;;
13592;SDS011;6867;50.998;4.250;2022-09-01T02:41:15;2.28;;;1.50;;
13592;SDS011;6867;50.998;4.250;2022-09-01T02:43:44;2.85;;;1.50;;
13592;SDS011;6867;50.998;4.250;2022-09-01T02:46:12;4.45;;;1.45;;
13592;SDS011;6867;50.998;4.250;2022-09-01T02:48:41;3.08;;;1.48;;
13592;SDS011;6867;50.998;4.250;2022-09-01T02:51:11;2.65;;;1.65;;
13592;SDS011;6867;50.998;4.250;2022-09-01T02:53:41;4.07;;;1.52;;
13592;SDS011;6867;50.998;4.250;2022-09-01T02:56:09;3.20;;;1.52;;
13592;SDS011;6867;50.998;4.250;2022-09-01T02:58:39;1.73;;;1.58;;
13592;SDS011;6867;50.998;4.250;2022-09-01T03:01:11;3.45;;;1.60;;
13592;SDS011;6867;50.998;4.250;2022-09-01T03:03:40;2.65;;;1.75;;
13592;SDS011;6867;50.998;4.250;2022-09-01T03:06:07;3.10;;;1.65;;
13592;SDS011;6867;50.998;4.250;2022-09-01T03:08:35;2.15;;;1.75;;
13592;SDS011;6867;50.998;4.250;2022-09-01T03:11:04;3.20;;;1.60;;
13592;SDS011;6867;50.998;4.250;2022-09-01T03:13:35;1.63;;;1.52;;
13592;SDS011;6867;50.998;4.250;2022-09-01T03:16:03;4.22;;;1.98;;
13592;SDS011;6867;50.998;4.250;2022-09-01T03:18:30;3.30;;;1.70;;
13592;SDS011;6867;50.998;4.250;2022-09-01T03:20:58;2.25;;;1.70;;
13592;SDS011;6867;50.998;4.250;2022-09-01T03:23:26;2.25;;;1.55;;
13592;SDS011;6867;50.998;4.250;2022-09-01T03:25:55;1.98;;;1.58;;
13592;SDS011;6867;50.998;4.250;2022-09-01T03:28:22;1.90;;;1.70;;
13592;SDS011;6867;50.998;4.250;2022-09-01T03:30:50;2.72;;;2.10;;
13592;SDS011;6867;50.998;4.250;2022-09-01T03:33:18;2.22;;;1.80;;
13592;SDS011;6867;50.998;4.250;2022-09-01T03:35:47;2.55;;;1.60;;
13592;SDS011;6867;50.998;4.250;2022-09-01T03:38:15;2.60;;;1.60;;
13592;SDS011;6867;50.998;4.250;2022-09-01T03:40:46;3.22;;;1.38;;
13592;SDS011;6867;50.998;4.250;2022-09-01T03:43:14;3.40;;;1.77;;
13592;SDS011;6867;50.998;4.250;2022-09-01T03:45:42;2.05;;;1.75;;
13592;SDS011;6867;50.998;4.250;2022-09-01T03:48:09;2.13;;;1.50;;
13592;SDS011;6867;50.998;4.250;2022-09-01T03:50:37;1.80;;;1.50;;
13592;SDS011;6867;50.998;4.250;2022-09-01T03:53:09;2.25;;;1.58;;
13592;SDS011;6867;50.998;4.250;2022-09-01T03:55:39;3.55;;;1.80;;
13592;SDS011;6867;50.998;4.250;2022-09-01T03:58:09;2.42;;;1.85;;
13592;SDS011;6867;50.998;4.250;2022-09-01T04:00:39;5.03;;;2.13;;
13592;SDS011;6867;50.998;4.250;2022-09-01T04:03:11;3.55;;;1.55;;
13592;SDS011;6867;50.998;4.250;2022-09-01T04:05:41;3.08;;;1.80;;
13592;SDS011;6867;50.998;4.250;2022-09-01T04:08:10;4.40;;;2.03;;
13592;SDS011;6867;50.998;4.250;2022-09-01T04:10:42;3.55;;;2.03;;
13592;SDS011;6867;50.998;4.250;2022-09-01T04:13:13;3.05;;;1.70;;
13592;SDS011;6867;50.998;4.250;2022-09-01T04:15:41;2.67;;;1.70;;
13592;SDS011;6867;50.998;4.250;2022-09-01T04:18:07;3.35;;;1.50;;
13592;SDS011;6867;50.998;4.250;2022-09-01T04:20:34;4.35;;;1.92;;
13592;SDS011;6867;50.998;4.250;2022-09-01T04:23:13;2.53;;;2.05;;
13592;SDS011;6867;50.998;4.250;2022-09-01T04:25:42;3.30;;;2.20;;
13592;SDS011;6867;50.998;4.250;2022-09-01T04:28:10;1.98;;;1.75;;
13592;SDS011;6867;50.998;4.250;2022-09-01T04:30:41;5.45;;;1.80;;
13592;SDS011;6867;50.998;4.250;2022-09-01T04:33:08;2.50;;;2.05;;
13592;SDS011;6867;50.998;4.250;2022-09-01T04:35:36;1.92;;;1.63;;
13592;SDS011;6867;50.998;4.250;2022-09-01T04:38:04;2.42;;;1.80;;
13592;SDS011;6867;50.998;4.250;2022-09-01T04:40:32;2.60;;;1.80;;
13592;SDS011;6867;50.998;4.250;2022-09-01T04:43:04;2.33;;;1.77;;
13592;SDS011;6867;50.998;4.250;2022-09-01T04:45:31;2.40;;;1.95;;
13592;SDS011;6867;50.998;4.250;2022-09-01T04:48:00;5.00;;;2.13;;
13592;SDS011;6867;50.998;4.250;2022-09-01T04:50:27;2.20;;;2.00;;
13592;SDS011;6867;50.998;4.250;2022-09-01T04:52:57;2.63;;;2.20;;
13592;SDS011;6867;50.998;4.250;2022-09-01T04:55:25;6.30;;;2.22;;
13592;SDS011;6867;50.998;4.250;2022-09-01T04:57:54;2.28;;;2.08;;
13592;SDS011;6867;50.998;4.250;2022-09-01T05:00:24;2.47;;;1.92;;
13592;SDS011;6867;50.998;4.250;2022-09-01T05:02:57;5.20;;;2.30;;
13592;SDS011;6867;50.998;4.250;2022-09-01T05:05:28;2.10;;;1.90;;
13592;SDS011;6867;50.998;4.250;2022-09-01T05:08:03;3.55;;;1.92;;
13592;SDS011;6867;50.998;4.250;2022-09-01T05:10:30;2.40;;;1.95;;
13592;SDS011;6867;50.998;4.250;2022-09-01T05:13:01;7.45;;;2.58;;
13592;SDS011;6867;50.998;4.250;2022-09-01T05:15:35;4.18;;;2.40;;
13592;SDS011;6867;50.998;4.250;2022-09-01T05:18:02;2.45;;;2.08;;
13592;SDS011;6867;50.998;4.250;2022-09-01T05:20:35;5.32;;;2.33;;
13592;SDS011;6867;50.998;4.250;2022-09-01T05:23:05;4.25;;;2.75;;
13592;SDS011;6867;50.998;4.250;2022-09-01T05:25:36;3.15;;;2.20;;
13592;SDS011;6867;50.998;4.250;2022-09-01T05:28:04;4.65;;;2.33;;
13592;SDS011;6867;50.998;4.250;2022-09-01T05:30:34;9.20;;;2.35;;
13592;SDS011;6867;50.998;4.250;2022-09-01T05:33:02;6.78;;;2.67;;
13592;SDS011;6867;50.998;4.250;2022-09-01T05:35:36;5.50;;;2.80;;
13592;SDS011;6867;50.998;4.250;2022-09-01T05:38:04;3.83;;;2.22;;
13592;SDS011;6867;50.998;4.250;2022-09-01T05:40:34;4.18;;;2.40;;
13592;SDS011;6867;50.998;4.250;2022-09-01T05:43:05;9.77;;;2.53;;
13592;SDS011;6867;50.998;4.250;2022-09-01T05:45:37;10.07;;;3.38;;
13592;SDS011;6867;50.998;4.250;2022-09-01T05:48:08;5.35;;;2.70;;
13592;SDS011;6867;50.998;4.250;2022-09-01T05:50:41;4.93;;;2.88;;
13592;SDS011;6867;50.998;4.250;2022-09-01T05:53:09;9.65;;;2.78;;
13592;SDS011;6867;50.998;4.250;2022-09-01T05:55:41;8.38;;;3.20;;
13592;SDS011;6867;50.998;4.250;2022-09-01T05:58:09;8.43;;;3.33;;
13592;SDS011;6867;50.998;4.250;2022-09-01T06:00:39;9.63;;;3.80;;
13592;SDS011;6867;50.998;4.250;2022-09-01T06:03:07;5.70;;;3.55;;
13592;SDS011;6867;50.998;4.250;2022-09-01T06:05:35;5.78;;;3.75;;
13592;SDS011;6867;50.998;4.250;2022-09-01T06:08:02;6.13;;;3.92;;
13592;SDS011;6867;50.998;4.250;2022-09-01T06:10:30;7.65;;;3.45;;
13592;SDS011;6867;50.998;4.250;2022-09-01T06:12:59;8.95;;;4.10;;
13592;SDS011;6867;50.998;4.250;2022-09-01T06:15:26;7.57;;;4.18;;
13592;SDS011;6867;50.998;4.250;2022-09-01T06:17:54;7.85;;;3.50;;
13592;SDS011;6867;50.998;4.250;2022-09-01T06:20:21;8.30;;;4.28;;
13592;SDS011;6867;50.998;4.250;2022-09-01T06:22:48;8.43;;;4.40;;
13592;SDS011;6867;50.998;4.250;2022-09-01T06:25:16;5.05;;;3.67;;
13592;SDS011;6867;50.998;4.250;2022-09-01T06:27:43;7.50;;;4.20;;
13592;SDS011;6867;50.998;4.250;2022-09-01T06:30:12;10.20;;;4.90;;
13592;SDS011;6867;50.998;4.250;2022-09-01T06:32:41;5.82;;;4.15;;
13592;SDS011;6867;50.998;4.250;2022-09-01T06:35:10;5.15;;;4.38;;
13592;SDS011;6867;50.998;4.250;2022-09-01T06:37:37;10.82;;;4.97;;
13592;SDS011;6867;50.998;4.250;2022-09-01T06:40:06;11.93;;;5.20;;
13592;SDS011;6867;50.998;4.250;2022-09-01T06:42:41;6.55;;;4.32;;
13592;SDS011;6867;50.998;4.250;2022-09-01T06:45:09;13.35;;;5.10;;
13592;SDS011;6867;50.998;4.250;2022-09-01T06:47:36;8.25;;;4.93;;
13592;SDS011;6867;50.998;4.250;2022-09-01T06:50:03;7.32;;;4.85;;
13592;SDS011;6867;50.998;4.250;2022-09-01T06:52:34;12.57;;;5.05;;
13592;SDS011;6867;50.998;4.250;2022-09-01T06:55:00;8.57;;;5.30;;
13592;SDS011;6867;50.998;4.250;2022-09-01T06:57:27;6.55;;;4.35;;
13592;SDS011;6867;50.998;4.250;2022-09-01T06:59:53;7.53;;;4.68;;
13592;SDS011;6867;50.998;4.250;2022-09-01T07:02:20;6.55;;;5.10;;
13592;SDS011;6867;50.998;4.250;2022-09-01T07:04:47;9.60;;;5.28;;
13592;SDS011;6867;50.998;4.250;2022-09-01T07:07:14;8.02;;;5.20;;
13592;SDS011;6867;50.998;4.250;2022-09-01T07:09:42;7.22;;;5.03;;
13592;SDS011;6867;50.998;4.250;2022-09-01T07:12:09;9.35;;;5.72;;
13592;SDS011;6867;50.998;4.250;2022-09-01T07:14:36;9.85;;;5.50;;
13592;SDS011;6867;50.998;4.250;2022-09-01T07:17:02;7.30;;;5.00;;
13592;SDS011;6867;50.998;4.250;2022-09-01T07:19:29;6.80;;;5.55;;
13592;SDS011;6867;50.998;4.250;2022-09-01T07:21:59;7.90;;;5.30;;
13592;SDS011;6867;50.998;4.250;2022-09-01T07:24:26;9.68;;;5.15;;
13592;SDS011;6867;50.998;4.250;2022-09-01T07:26:54;7.70;;;5.63;;
13592;SDS011;6867;50.998;4.250;2022-09-01T07:29:21;7.80;;;5.30;;
13592;SDS011;6867;50.998;4.250;2022-09-01T07:31:50;14.20;;;5.45;;
13592;SDS011;6867;50.998;4.250;2022-09-01T07:34:19;8.85;;;4.80;;
13592;SDS011;6867;50.998;4.250;2022-09-01T07:36:46;11.95;;;5.30;;
13592;SDS011;6867;50.998;4.250;2022-09-01T07:39:13;8.10;;;5.15;;
13592;SDS011;6867;50.998;4.250;2022-09-01T07:41:40;7.18;;;5.10;;
13592;SDS011;6867;50.998;4.250;2022-09-01T07:44:08;7.05;;;4.88;;
13592;SDS011;6867;50.998;4.250;2022-09-01T07:46:39;7.05;;;4.88;;
13592;SDS011;6867;50.998;4.250;2022-09-01T07:49:06;5.70;;;5.03;;
13592;SDS011;6867;50.998;4.250;2022-09-01T07:51:34;9.55;;;4.95;;
13592;SDS011;6867;50.998;4.250;2022-09-01T07:54:01;8.85;;;4.70;;
13592;SDS011;6867;50.998;4.250;2022-09-01T07:56:28;6.63;;;5.05;;
13592;SDS011;6867;50.998;4.250;2022-09-01T07:58:55;7.53;;;5.15;;
13592;SDS011;6867;50.998;4.250;2022-09-01T08:01:25;9.15;;;4.78;;
13592;SDS011;6867;50.998;4.250;2022-09-01T08:03:53;6.35;;;4.38;;
13592;SDS011;6867;50.998;4.250;2022-09-01T08:06:23;6.05;;;4.50;;
13592;SDS011;6867;50.998;4.250;2022-09-01T08:08:53;12.13;;;5.57;;
13592;SDS011;6867;50.998;4.250;2022-09-01T08:11:22;8.20;;;4.35;;
13592;SDS011;6867;50.998;4.250;2022-09-01T08:13:50;8.70;;;4.65;;
13592;SDS011;6867;50.998;4.250;2022-09-01T08:16:18;6.28;;;4.90;;
13592;SDS011;6867;50.998;4.250;2022-09-01T08:18:47;6.25;;;4.68;;
13592;SDS011;6867;50.998;4.250;2022-09-01T08:21:14;9.85;;;5.00;;
13592;SDS011;6867;50.998;4.250;2022-09-01T08:23:42;6.28;;;4.25;;
13592;SDS011;6867;50.998;4.250;2022-09-01T08:26:10;8.63;;;4.57;;
13592;SDS011;6867;50.998;4.250;2022-09-01T08:28:37;6.97;;;4.97;;
13592;SDS011;6867;50.998;4.250;2022-09-01T08:31:06;6.53;;;4.03;;
13592;SDS011;6867;50.998;4.250;2022-09-01T08:33:34;9.88;;;4.10;;
13592;SDS011;6867;50.998;4.250;2022-09-01T08:36:03;6.80;;;4.65;;
13592;SDS011;6867;50.998;4.250;2022-09-01T08:38:32;8.10;;;4.18;;
13592;SDS011;6867;50.998;4.250;2022-09-01T08:40:59;7.30;;;3.83;;
13592;SDS011;6867;50.998;4.250;2022-09-01T08:43:31;6.47;;;4.30;;
13592;SDS011;6867;50.998;4.250;2022-09-01T08:46:11;4.40;;;4.00;;
13592;SDS011;6867;50.998;4.250;2022-09-01T08:48:44;5.68;;;3.88;;
13592;SDS011;6867;50.998;4.250;2022-09-01T08:51:17;5.20;;;3.58;;
13592;SDS011;6867;50.998;4.250;2022-09-01T08:53:51;5.35;;;3.80;;
13592;SDS011;6867;50.998;4.250;2022-09-01T08:56:25;5.22;;;3.45;;
13592;SDS011;6867;50.998;4.250;2022-09-01T08:58:53;5.70;;;3.58;;
13592;SDS011;6867;50.998;4.250;2022-09-01T09:01:21;4.25;;;3.28;;
13592;SDS011;6867;50.998;4.250;2022-09-01T09:04:08;10.43;;;3.88;;
13592;SDS011;6867;50.998;4.250;2022-09-01T09:06:49;4.18;;;3.20;;
13592;SDS011;6867;50.998;4.250;2022-09-01T09:09:20;4.80;;;2.92;;
13592;SDS011;6867;50.998;4.250;2022-09-01T09:12:05;5.25;;;3.50;;
13592;SDS011;6867;50.998;4.250;2022-09-01T09:14:57;6.35;;;3.50;;
13592;SDS011;6867;50.998;4.250;2022-09-01T09:17:35;5.05;;;2.95;;
13592;SDS011;6867;50.998;4.250;2022-09-01T09:20:07;6.45;;;2.95;;
13592;SDS011;6867;50.998;4.250;2022-09-01T09:22:36;4.43;;;3.28;;
13592;SDS011;6867;50.998;4.250;2022-09-01T09:25:05;7.78;;;3.35;;
13592;SDS011;6867;50.998;4.250;2022-09-01T09:27:36;3.63;;;3.20;;
13592;SDS011;6867;50.998;4.250;2022-09-01T09:30:05;2.83;;;2.55;;
13592;SDS011;6867;50.998;4.250;2022-09-01T09:32:42;3.15;;;2.85;;
13592;SDS011;6867;50.998;4.250;2022-09-01T09:35:22;4.72;;;2.90;;
13592;SDS011;6867;50.998;4.250;2022-09-01T09:37:54;8.70;;;3.15;;
13592;SDS011;6867;50.998;4.250;2022-09-01T09:40:21;5.93;;;3.00;;
13592;SDS011;6867;50.998;4.250;2022-09-01T09:43:04;3.00;;;2.55;;
13592;SDS011;6867;50.998;4.250;2022-09-01T09:45:33;4.57;;;3.35;;
13592;SDS011;6867;50.998;4.250;2022-09-01T09:48:04;4.82;;;2.90;;
13592;SDS011;6867;50.998;4.250;2022-09-01T09:50:33;4.40;;;2.58;;
13592;SDS011;6867;50.998;4.250;2022-09-01T09:53:11;4.47;;;2.25;;
13592;SDS011;6867;50.998;4.250;2022-09-01T09:55:49;3.30;;;2.47;;
13592;SDS011;6867;50.998;4.250;2022-09-01T09:58:20;8.00;;;2.72;;
13592;SDS011;6867;50.998;4.250;2022-09-01T10:00:57;3.53;;;2.38;;
13592;SDS011;6867;50.998;4.250;2022-09-01T10:03:33;2.95;;;2.60;;
13592;SDS011;6867;50.998;4.250;2022-09-01T10:06:01;2.97;;;2.05;;
13592;SDS011;6867;50.998;4.250;2022-09-01T10:08:39;2.97;;;2.25;;
13592;SDS011;6867;50.998;4.250;2022-09-01T10:11:23;3.30;;;2.22;;
13592;SDS011;6867;50.998;4.250;2022-09-01T10:13:53;3.70;;;1.77;;
13592;SDS011;6867;50.998;4.250;2022-09-01T10:16:22;2.15;;;1.95;;
13592;SDS011;6867;50.998;4.250;2022-09-01T10:18:54;3.85;;;2.10;;
13592;SDS011;6867;50.998;4.250;2022-09-01T10:21:25;3.10;;;2.25;;
13592;SDS011;6867;50.998;4.250;2022-09-01T10:23:59;3.28;;;1.85;;
13592;SDS011;6867;50.998;4.250;2022-09-01T10:26:29;3.25;;;2.17;;
13592;SDS011;6867;50.998;4.250;2022-09-01T10:29:04;2.03;;;1.70;;
13592;SDS011;6867;50.998;4.250;2022-09-01T10:31:34;4.30;;;1.80;;
13592;SDS011;6867;50.998;4.250;2022-09-01T10:34:02;2.83;;;2.05;;
13592;SDS011;6867;50.998;4.250;2022-09-01T10:36:31;3.05;;;2.13;;
13592;SDS011;6867;50.998;4.250;2022-09-01T10:39:00;4.60;;;1.85;;
13592;SDS011;6867;50.998;4.250;2022-09-01T10:41:47;3.40;;;2.00;;
13592;SDS011;6867;50.998;4.250;2022-09-01T10:44:18;3.70;;;1.80;;
13592;SDS011;6867;50.998;4.250;2022-09-01T10:46:47;8.15;;;2.05;;
13592;SDS011;6867;50.998;4.250;2022-09-01T10:49:18;2.13;;;1.90;;
13592;SDS011;6867;50.998;4.250;2022-09-01T10:52:00;1.90;;;1.50;;
13592;SDS011;6867;50.998;4.250;2022-09-01T10:57:27;3.63;;;1.92;;
13592;SDS011;6867;50.998;4.250;2022-09-01T11:00:18;2.92;;;2.00;;
13592;SDS011;6867;50.998;4.250;2022-09-01T11:06:30;1.95;;;1.67;;
13592;SDS011;6867;50.998;4.250;2022-09-01T11:09:24;2.88;;;2.00;;
13592;SDS011;6867;50.998;4.250;2022-09-01T11:14:47;2.28;;;1.88;;
13592;SDS011;6867;50.998;4.250;2022-09-01T11:17:17;2.45;;;1.98;;
13592;SDS011;6867;50.998;4.250;2022-09-01T11:19:53;2.70;;;1.73;;
13592;SDS011;6867;50.998;4.250;2022-09-01T11:25:11;2.58;;;1.70;;
13592;SDS011;6867;50.998;4.250;2022-09-01T11:28:00;2.30;;;1.48;;
13592;SDS011;6867;50.998;4.250;2022-09-01T11:30:35;3.08;;;1.90;;
13592;SDS011;6867;50.998;4.250;2022-09-01T11:33:26;1.90;;;1.70;;
13592;SDS011;6867;50.998;4.250;2022-09-01T11:36:00;3.25;;;1.85;;
13592;SDS011;6867;50.998;4.250;2022-09-01T11:38:31;2.00;;;1.77;;
13592;SDS011;6867;50.998;4.250;2022-09-01T11:41:08;2.65;;;1.77;;
13592;SDS011;6867;50.998;4.250;2022-09-01T11:43:49;5.05;;;1.75;;
13592;SDS011;6867;50.998;4.250;2022-09-01T11:46:20;2.35;;;1.70;;
13592;SDS011;6867;50.998;4.250;2022-09-01T11:48:52;4.63;;;2.10;;
13592;SDS011;6867;50.998;4.250;2022-09-01T11:51:20;2.03;;;1.60;;
13592;SDS011;6867;50.998;4.250;2022-09-01T11:53:47;2.35;;;1.38;;
13592;SDS011;6867;50.998;4.250;2022-09-01T11:56:16;1.92;;;1.80;;
13592;SDS011;6867;50.998;4.250;2022-09-01T11:58:44;5.60;;;1.98;;
13592;SDS011;6867;50.998;4.250;2022-09-01T12:01:13;2.20;;;1.90;;
13592;SDS011;6867;50.998;4.250;2022-09-01T12:03:42;2.85;;;1.50;;
13592;SDS011;6867;50.998;4.250;2022-09-01T12:06:11;2.55;;;1.88;;
13592;SDS011;6867;50.998;4.250;2022-09-01T12:08:50;2.60;;;1.90;;
13592;SDS011;6867;50.998;4.250;2022-09-01T12:11:20;3.28;;;1.60;;
13592;SDS011;6867;50.998;4.250;2022-09-01T12:13:55;4.38;;;1.80;;
13592;SDS011;6867;50.998;4.250;2022-09-01T12:16:26;3.97;;;1.90;;
13592;SDS011;6867;50.998;4.250;2022-09-01T12:18:55;4.07;;;1.83;;
13592;SDS011;6867;50.998;4.250;2022-09-01T12:21:24;3.75;;;1.50;;
13592;SDS011;6867;50.998;4.250;2022-09-01T12:23:53;2.17;;;1.98;;
13592;SDS011;6867;50.998;4.250;2022-09-01T12:26:34;3.08;;;1.90;;
13592;SDS011;6867;50.998;4.250;2022-09-01T12:29:02;3.03;;;1.70;;
13592;SDS011;6867;50.998;4.250;2022-09-01T12:31:32;2.25;;;2.05;;
13592;SDS011;6867;50.998;4.250;2022-09-01T12:33:59;2.55;;;1.80;;
13592;SDS011;6867;50.998;4.250;2022-09-01T12:36:29;1.60;;;1.50;;
13592;SDS011;6867;50.998;4.250;2022-09-01T12:41:59;4.25;;;1.98;;
13592;SDS011;6867;50.998;4.250;2022-09-01T12:44:30;1.65;;;1.23;;
13592;SDS011;6867;50.998;4.250;2022-09-01T12:47:01;1.55;;;1.42;;
13592;SDS011;6867;50.998;4.250;2022-09-01T12:49:35;4.35;;;1.65;;
13592;SDS011;6867;50.998;4.250;2022-09-01T12:52:05;3.13;;;1.70;;
13592;SDS011;6867;50.998;4.250;2022-09-01T12:54:37;3.08;;;1.67;;
13592;SDS011;6867;50.998;4.250;2022-09-01T12:57:03;2.72;;;1.70;;
13592;SDS011;6867;50.998;4.250;2022-09-01T12:59:31;2.75;;;1.90;;
13592;SDS011;6867;50.998;4.250;2022-09-01T13:07:47;1.67;;;1.58;;
13592;SDS011;6867;50.998;4.250;2022-09-01T13:10:14;2.25;;;1.77;;
13592;SDS011;6867;50.998;4.250;2022-09-01T13:12:41;2.42;;;2.05;;
13592;SDS011;6867;50.998;4.250;2022-09-01T13:15:08;2.88;;;1.70;;
13592;SDS011;6867;50.998;4.250;2022-09-01T13:17:37;2.45;;;1.60;;
13592;SDS011;6867;50.998;4.250;2022-09-01T13:20:04;2.50;;;2.00;;
13592;SDS011;6867;50.998;4.250;2022-09-01T13:22:32;2.30;;;1.60;;
13592;SDS011;6867;50.998;4.250;2022-09-01T13:24:59;1.95;;;1.80;;
13592;SDS011;6867;50.998;4.250;2022-09-01T13:27:26;2.28;;;1.90;;
13592;SDS011;6867;50.998;4.250;2022-09-01T13:29:52;4.25;;;1.70;;
13592;SDS011;6867;50.998;4.250;2022-09-01T13:32:20;3.83;;;1.83;;
13592;SDS011;6867;50.998;4.250;2022-09-01T13:34:49;2.13;;;1.70;;
13592;SDS011;6867;50.998;4.250;2022-09-01T13:37:17;2.45;;;1.95;;
13592;SDS011;6867;50.998;4.250;2022-09-01T13:39:44;2.13;;;1.95;;
13592;SDS011;6867;50.998;4.250;2022-09-01T13:42:11;2.13;;;1.92;;
13592;SDS011;6867;50.998;4.250;2022-09-01T13:44:38;2.38;;;2.00;;
13592;SDS011;6867;50.998;4.250;2022-09-01T13:47:05;3.85;;;1.98;;
13592;SDS011;6867;50.998;4.250;2022-09-01T13:49:32;4.13;;;1.60;;
13592;SDS011;6867;50.998;4.250;2022-09-01T13:52:00;2.15;;;1.90;;
13592;SDS011;6867;50.998;4.250;2022-09-01T13:54:27;6.45;;;2.15;;
13592;SDS011;6867;50.998;4.250;2022-09-01T13:56:53;4.20;;;2.17;;
13592;SDS011;6867;50.998;4.250;2022-09-01T13:59:20;2.08;;;1.88;;
13592;SDS011;6867;50.998;4.250;2022-09-01T14:01:47;4.30;;;2.38;;
13592;SDS011;6867;50.998;4.250;2022-09-01T14:04:14;1.80;;;1.70;;
13592;SDS011;6867;50.998;4.250;2022-09-01T14:06:42;2.30;;;2.10;;
13592;SDS011;6867;50.998;4.250;2022-09-01T14:09:11;2.22;;;2.03;;
13592;SDS011;6867;50.998;4.250;2022-09-01T14:11:39;3.45;;;2.10;;
13592;SDS011;6867;50.998;4.250;2022-09-01T14:14:06;2.22;;;1.70;;
13592;SDS011;6867;50.998;4.250;2022-09-01T14:16:33;2.20;;;2.00;;
13592;SDS011;6867;50.998;4.250;2022-09-01T14:18:59;3.75;;;1.95;;
13592;SDS011;6867;50.998;4.250;2022-09-01T14:21:26;2.83;;;2.17;;
13592;SDS011;6867;50.998;4.250;2022-09-01T14:23:53;2.63;;;2.08;;
13592;SDS011;6867;50.998;4.250;2022-09-01T14:26:21;6.70;;;2.53;;
13592;SDS011;6867;50.998;4.250;2022-09-01T14:28:48;2.30;;;2.10;;
13592;SDS011;6867;50.998;4.250;2022-09-01T14:31:16;3.03;;;2.38;;
13592;SDS011;6867;50.998;4.250;2022-09-01T14:33:43;1.73;;;1.63;;
13592;SDS011;6867;50.998;4.250;2022-09-01T14:36:15;1.98;;;1.73;;
13592;SDS011;6867;50.998;4.250;2022-09-01T14:38:43;2.78;;;2.33;;
13592;SDS011;6867;50.998;4.250;2022-09-01T14:41:11;2.22;;;2.03;;
13592;SDS011;6867;50.998;4.250;2022-09-01T14:43:40;2.10;;;1.90;;
13592;SDS011;6867;50.998;4.250;2022-09-01T14:46:08;1.65;;;1.55;;
13592;SDS011;6867;50.998;4.250;2022-09-01T14:48:37;3.63;;;1.75;;
13592;SDS011;6867;50.998;4.250;2022-09-01T14:51:05;2.78;;;1.75;;
13592;SDS011;6867;50.998;4.250;2022-09-01T14:53:33;2.10;;;1.90;;
13592;SDS011;6867;50.998;4.250;2022-09-01T14:56:01;2.85;;;2.60;;
13592;SDS011;6867;50.998;4.250;2022-09-01T14:58:28;2.58;;;2.05;;
13592;SDS011;6867;50.998;4.250;2022-09-01T15:00:56;3.47;;;1.90;;
13592;SDS011;6867;50.998;4.250;2022-09-01T15:03:23;1.85;;;1.65;;
13592;SDS011;6867;50.998;4.250;2022-09-01T15:05:51;2.85;;;1.70;;
13592;SDS011;6867;50.998;4.250;2022-09-01T15:08:18;2.00;;;1.60;;
13592;SDS011;6867;50.998;4.250;2022-09-01T15:10:45;1.80;;;1.55;;
13592;SDS011;6867;50.998;4.250;2022-09-01T15:13:12;4.40;;;1.73;;
13592;SDS011;6867;50.998;4.250;2022-09-01T15:15:39;2.78;;;1.58;;
13592;SDS011;6867;50.998;4.250;2022-09-01T15:18:07;1.60;;;1.33;;
13592;SDS011;6867;50.998;4.250;2022-09-01T15:20:37;2.90;;;1.92;;
13592;SDS011;6867;50.998;4.250;2022-09-01T15:23:11;1.65;;;1.30;;
13592;SDS011;6867;50.998;4.250;2022-09-01T15:25:39;2.78;;;1.48;;
13592;SDS011;6867;50.998;4.250;2022-09-01T15:28:06;6.63;;;1.30;;
13592;SDS011;6867;50.998;4.250;2022-09-01T15:30:33;3.25;;;1.70;;
13592;SDS011;6867;50.998;4.250;2022-09-01T15:33:01;1.33;;;1.10;;
13592;SDS011;6867;50.998;4.250;2022-09-01T15:35:30;1.98;;;1.50;;
13592;SDS011;6867;50.998;4.250;2022-09-01T15:37:57;2.25;;;1.30;;